Modesto, California
Current Conditions -  °F | °C
As of 3:53 AM on Friday 28 Nov 2014 (Local Time) from KMOD Reporting Station
Haze Haze  
Wind Chill: 38°   Ceiling: Unl
Heat Index: 41°   Visibility: 1.2mi
Dew Point: 39°   Wind: 5mph
Humidity: 93%   Direction: 110°ESE
Pressure: 30.01"   Gusts: NA
Location:  37.64°N, 120.99°W
Report Text: KMOD 281153Z AUTO 11004KT 1 1/4SM BR CLR 05/04 A3001 RMK AO2 SLP163 T00500039 10083 20044 58014
Loading
Personal Weather Stations






























Interactive Weather Map New forecast layout! Learn more

10-Day Weather Forecast

Advertisements
Track Severe Weather on mobile